Time;durP1;ratioP1;P1;durP2;ratioP2;P2;SDS_P1;SDS_P2;PMS_P1;PMS_P2;Temp;Humidity;BMP_temperature;BMP_pressure;BME280_temperature;BME280_humidity;BME280_pressure;Samples;Min_cycle;Max_cycle;Signal;HPM_P1;HPM_P2
2023/10/13 00:00:29;;;;;;;;;;;13.70;99.90;;;;;;5015032;28;20012;-91
2023/10/13 00:03:01;;;;;;;;;;;13.70;99.90;;;;;;5019205;28;20373;-94
2023/10/13 00:05:27;;;;;;;;;;;13.70;99.90;;;;;;5020551;28;19982;-91
2023/10/13 00:07:53;;;;;;;;;;;13.80;99.90;;;;;;5009492;28;19917;-94
2023/10/13 00:10:19;;;;;;;;;;;13.80;99.90;;;;;;5017254;28;19917;-94
2023/10/13 00:12:49;;;;;;;;;;;13.80;99.90;;;;;;5034308;28;19927;-92
2023/10/13 00:15:20;;;;;;;;;;;13.90;99.90;;;;;;5002749;28;19925;-90
2023/10/13 00:17:46;;;;;;;;;;;14.30;99.90;;;;;;5008628;28;19928;-90
2023/10/13 00:20:38;;;;;;;;;;;14.00;99.90;;;;;;5013705;28;19924;-95
2023/10/13 00:22:57;;;;;;;;;;;14.00;99.90;;;;;;5026955;28;20578;-93
2023/10/13 00:25:27;;;;;;;;;;;13.30;99.90;;;;;;5018686;28;19996;-91
2023/10/13 00:27:53;;;;;;;;;;;14.00;99.90;;;;;;5017643;28;19917;-93
2023/10/13 00:30:33;;;;;;;;;;;14.00;99.90;;;;;;5032402;28;20423;-94
2023/10/13 00:32:59;;;;;;;;;;;13.30;99.90;;;;;;4997446;28;20040;-91
2023/10/13 00:35:29;;;;;;;;;;;14.20;99.90;;;;;;5012182;28;20337;-94
2023/10/13 00:37:56;;;;;;;;;;;14.30;99.90;;;;;;5020858;28;19986;-93
2023/10/13 00:41:13;;;;;;;;;;;14.10;99.90;;;;;;5015862;28;19917;-93
2023/10/13 00:45:54;;;;;;;;;;;14.40;99.90;;;;;;5034893;28;19924;-93
2023/10/13 00:48:33;;;;;;;;;;;14.30;99.90;;;;;;5016981;28;19986;-89
2023/10/13 00:51:02;;;;;;;;;;;14.50;99.90;;;;;;5018754;28;20321;-93
2023/10/13 00:53:33;;;;;;;;;;;14.40;99.90;;;;;;5016449;28;20008;-93
2023/10/13 00:56:07;;;;;;;;;;;14.50;99.90;;;;;;5017402;28;19921;-91
2023/10/13 00:58:38;;;;;;;;;;;14.50;99.90;;;;;;5011799;28;19925;-95
2023/10/13 01:01:27;;;;;;;;;;;14.60;99.90;;;;;;5004821;28;19944;-92
2023/10/13 01:03:59;;;;;;;;;;;14.70;99.90;;;;;;5013705;28;19917;-92
2023/10/13 01:06:25;;;;;;;;;;;14.70;99.90;;;;;;5028416;28;19916;-92
2023/10/13 01:09:16;;;;;;;;;;;14.50;99.90;;;;;;5025387;28;19920;-93
2023/10/13 01:11:43;;;;;;;;;;;14.60;99.90;;;;;;5017090;28;19921;-92
2023/10/13 01:14:11;;;;;;;;;;;14.70;99.90;;;;;;5017927;28;20371;-95
2023/10/13 01:16:45;;;;;;;;;;;14.80;99.90;;;;;;5006952;28;19925;-92
2023/10/13 01:19:18;;;;;;;;;;;14.90;99.90;;;;;;5015371;28;20376;-91
2023/10/13 01:21:44;;;;;;;;;;;14.90;99.90;;;;;;5028403;28;20356;-91
2023/10/13 01:24:11;;;;;;;;;;;14.80;99.90;;;;;;5015793;28;19924;-90
2023/10/13 01:26:42;;;;;;;;;;;15.00;99.90;;;;;;5023835;28;19929;-91
2023/10/13 01:29:12;;;;;;;;;;;14.90;99.90;;;;;;5016957;28;19924;-92
2023/10/13 01:31:47;;;;;;;;;;;14.90;99.90;;;;;;5017293;28;19917;-92
2023/10/13 01:34:22;;;;;;;;;;;15.10;99.90;;;;;;5024538;28;19925;-90
2023/10/13 01:36:50;;;;;;;;;;;15.10;99.90;;;;;;5011135;28;19968;-95
2023/10/13 01:39:17;;;;;;;;;;;15.00;99.90;;;;;;4998526;28;19917;-92
2023/10/13 01:41:43;;;;;;;;;;;15.00;99.90;;;;;;4982116;28;20300;-91
2023/10/13 01:44:11;;;;;;;;;;;15.20;99.90;;;;;;5003618;28;19932;-91
2023/10/13 01:46:37;;;;;;;;;;;15.10;99.90;;;;;;4981481;28;19918;-93
2023/10/13 01:49:03;;;;;;;;;;;15.10;99.90;;;;;;4988853;28;20368;-95
2023/10/13 01:51:28;;;;;;;;;;;15.30;99.90;;;;;;5000595;28;19923;-93
2023/10/13 01:53:57;;;;;;;;;;;15.20;99.90;;;;;;4997546;28;20431;-94
2023/10/13 01:56:24;;;;;;;;;;;15.20;99.90;;;;;;4986703;28;19921;-93
2023/10/13 01:58:50;;;;;;;;;;;15.40;99.90;;;;;;5001786;28;19956;-92
2023/10/13 02:01:27;;;;;;;;;;;15.30;99.90;;;;;;5005665;28;19917;-93
2023/10/13 02:04:01;;;;;;;;;;;15.20;99.90;;;;;;5002489;28;19917;-91
2023/10/13 02:06:32;;;;;;;;;;;15.40;99.90;;;;;;5017641;28;19917;-93
2023/10/13 02:09:13;;;;;;;;;;;15.30;99.90;;;;;;5020434;28;19956;-91
2023/10/13 02:11:39;;;;;;;;;;;15.30;99.90;;;;;;5010332;28;19921;-90
2023/10/13 02:14:05;;;;;;;;;;;15.40;99.90;;;;;;5021301;28;19964;-94
2023/10/13 02:16:31;;;;;;;;;;;15.50;99.90;;;;;;5016414;28;20383;-93
2023/10/13 02:18:58;;;;;;;;;;;15.50;99.90;;;;;;5016811;28;20257;-92
2023/10/13 02:21:31;;;;;;;;;;;15.40;99.90;;;;;;5035070;28;19916;-93
2023/10/13 02:24:02;;;;;;;;;;;15.40;99.90;;;;;;5015940;28;19917;-93
2023/10/13 02:26:31;;;;;;;;;;;15.40;99.90;;;;;;5016252;28;19917;-92
2023/10/13 02:29:07;;;;;;;;;;;15.60;99.90;;;;;;5033183;28;19916;-91
2023/10/13 02:31:37;;;;;;;;;;;15.60;99.90;;;;;;5017745;28;20325;-93
2023/10/13 02:34:09;;;;;;;;;;;15.70;99.90;;;;;;5015796;28;19921;-92
2023/10/13 02:36:47;;;;;;;;;;;15.50;99.90;;;;;;5010215;28;19922;-91
2023/10/13 02:39:13;;;;;;;;;;;15.50;99.90;;;;;;4995708;28;20330;-93
2023/10/13 02:41:40;;;;;;;;;;;15.50;99.90;;;;;;5007747;28;20385;-94
2023/10/13 02:44:06;;;;;;;;;;;15.50;99.90;;;;;;5010129;28;19917;-93
2023/10/13 02:46:35;;;;;;;;;;;15.70;99.90;;;;;;5013655;28;19932;-93
2023/10/13 02:49:09;;;;;;;;;;;15.70;99.90;;;;;;4997947;28;19964;-92
2023/10/13 02:51:35;;;;;;;;;;;15.70;99.90;;;;;;5028780;28;19917;-92
2023/10/13 02:54:11;;;;;;;;;;;15.60;99.90;;;;;;5002863;28;19917;-92
2023/10/13 02:56:49;;;;;;;;;;;15.70;99.90;;;;;;5001061;28;19922;-92
2023/10/13 02:59:15;;;;;;;;;;;15.60;99.90;;;;;;5017266;28;19922;-93
2023/10/13 03:01:40;;;;;;;;;;;15.80;99.90;;;;;;5016206;28;19924;-93
2023/10/13 03:04:12;;;;;;;;;;;15.80;99.90;;;;;;5018770;28;20283;-93
2023/10/13 03:06:40;;;;;;;;;;;15.70;99.90;;;;;;5024943;28;19932;-95
2023/10/13 03:09:14;;;;;;;;;;;15.70;99.90;;;;;;5028947;28;19963;-96
2023/10/13 03:11:48;;;;;;;;;;;15.80;99.90;;;;;;5022856;28;20012;-95
2023/10/13 03:14:23;;;;;;;;;;;15.70;99.90;;;;;;5034698;28;20422;-96
2023/10/13 03:16:50;;;;;;;;;;;15.80;99.90;;;;;;5009912;28;20012;-93
2023/10/13 03:19:19;;;;;;;;;;;15.70;99.90;;;;;;5013731;28;20035;-95
2023/10/13 03:21:46;;;;;;;;;;;15.90;99.90;;;;;;4999837;28;20288;-94
2023/10/13 03:24:13;;;;;;;;;;;15.70;99.90;;;;;;5022273;28;19917;-96
2023/10/13 03:26:44;;;;;;;;;;;15.70;99.90;;;;;;5020773;28;19917;-94
2023/10/13 03:29:13;;;;;;;;;;;15.70;99.90;;;;;;5004766;28;19955;-96
2023/10/13 03:31:39;;;;;;;;;;;15.80;99.90;;;;;;5019039;28;19932;-95
2023/10/13 03:34:05;;;;;;;;;;;15.80;99.90;;;;;;5018755;28;19975;-95
2023/10/13 03:39:15;;;;;;;;;;;15.90;99.90;;;;;;5021994;28;19917;-93
2023/10/13 03:41:41;;;;;;;;;;;15.80;99.90;;;;;;5001960;28;19928;-91
2023/10/13 03:44:14;;;;;;;;;;;15.90;99.90;;;;;;5002223;28;20352;-92
2023/10/13 03:46:42;;;;;;;;;;;16.00;99.90;;;;;;5019118;28;19921;-91
2023/10/13 03:49:12;;;;;;;;;;;15.90;99.90;;;;;;5001708;28;19921;-94
2023/10/13 03:51:39;;;;;;;;;;;16.00;99.90;;;;;;5018483;28;20048;-92
2023/10/13 03:54:08;;;;;;;;;;;15.90;99.90;;;;;;5016823;28;19980;-93
2023/10/13 03:56:40;;;;;;;;;;;16.00;99.90;;;;;;5015425;28;19948;-90
2023/10/13 03:59:06;;;;;;;;;;;16.00;99.90;;;;;;5029082;28;19917;-91
2023/10/13 04:01:43;;;;;;;;;;;15.90;99.90;;;;;;5018296;28;19924;-93
2023/10/13 04:04:14;;;;;;;;;;;15.90;99.90;;;;;;5000265;28;19968;-90
2023/10/13 04:17:14;;;;;;;;;;;16.00;99.90;;;;;;5034062;28;19968;-90
2023/10/13 04:20:12;;;;;;;;;;;15.90;99.90;;;;;;4998208;28;19928;-91
2023/10/13 04:23:16;;;;;;;;;;;15.90;99.90;;;;;;5020689;28;20410;-93
2023/10/13 04:38:59;;;;;;;;;;;16.00;99.90;;;;;;5020651;28;19918;-94
2023/10/13 04:41:42;;;;;;;;;;;15.90;99.90;;;;;;5027179;28;19924;-91
2023/10/13 04:49:29;;;;;;;;;;;16.10;99.90;;;;;;5033681;28;19999;-92
2023/10/13 04:51:58;;;;;;;;;;;15.90;99.90;;;;;;5030609;28;19916;-89
2023/10/13 04:54:44;;;;;;;;;;;16.00;99.90;;;;;;5019814;28;20261;-93
2023/10/13 05:03:30;;;;;;;;;;;16.10;99.90;;;;;;5027324;28;19940;-91
2023/10/13 05:44:32;;;;;;;;;;;15.90;99.90;;;;;;5002602;28;19967;-93
2023/10/13 05:44:37;;;;;;;;;;;16.00;99.90;;;;;;5015845;28;20003;-87
2023/10/13 05:49:50;;;;;;;;;;;16.10;99.90;;;;;;5014874;28;20295;-89
2023/10/13 05:52:19;;;;;;;;;;;15.90;99.90;;;;;;5019530;28;19992;-87
2023/10/13 06:30:19;;;;;;;;;;;15.60;99.90;;;;;;5008653;28;19917;-92
2023/10/13 06:32:46;;;;;;;;;;;15.60;99.90;;;;;;5013489;28;19924;-93
2023/10/13 06:35:23;;;;;;;;;;;15.50;99.90;;;;;;4998670;28;19952;-88
2023/10/13 06:37:52;;;;;;;;;;;15.80;99.90;;;;;;5014999;28;19932;-96
2023/10/13 06:42:47;;;;;;;;;;;15.50;99.90;;;;;;5032040;28;19924;-87
2023/10/13 06:45:17;;;;;;;;;;;15.50;99.90;;;;;;5008410;28;20028;-89
2023/10/13 06:47:43;;;;;;;;;;;15.60;99.90;;;;;;5016407;28;20292;-89
2023/10/13 06:50:19;;;;;;;;;;;15.50;99.90;;;;;;5014054;28;19921;-90
2023/10/13 06:52:46;;;;;;;;;;;15.50;99.90;;;;;;5006555;28;20020;-91
2023/10/13 06:55:23;;;;;;;;;;;15.50;99.90;;;;;;4998858;28;20546;-90
2023/10/13 06:57:51;;;;;;;;;;;15.80;99.90;;;;;;4984858;28;19925;-90
2023/10/13 07:00:26;;;;;;;;;;;15.70;99.90;;;;;;5013498;28;20348;-88
2023/10/13 07:02:52;;;;;;;;;;;15.80;99.90;;;;;;5008136;28;19928;-89
2023/10/13 07:05:19;;;;;;;;;;;15.60;99.90;;;;;;4997165;28;19999;-90
2023/10/13 07:07:45;;;;;;;;;;;15.60;99.90;;;;;;5006223;28;19921;-91
2023/10/13 07:10:12;;;;;;;;;;;15.70;99.90;;;;;;5023098;28;19923;-91
2023/10/13 07:12:42;;;;;;;;;;;15.70;99.90;;;;;;4998378;28;19917;-92
2023/10/13 07:15:19;;;;;;;;;;;15.70;99.90;;;;;;4994337;28;20284;-92
2023/10/13 07:17:54;;;;;;;;;;;15.70;99.90;;;;;;4999552;28;19960;-91
2023/10/13 07:23:03;;;;;;;;;;;16.00;99.90;;;;;;5002359;28;19917;-92
2023/10/13 07:25:37;;;;;;;;;;;16.00;99.90;;;;;;5012488;28;19924;-92
2023/10/13 07:28:03;;;;;;;;;;;15.80;99.90;;;;;;5011543;28;20353;-89
2023/10/13 07:30:30;;;;;;;;;;;15.80;99.90;;;;;;5012487;28;19933;-90
2023/10/13 07:32:59;;;;;;;;;;;16.10;99.90;;;;;;5030851;28;20483;-91
2023/10/13 07:35:25;;;;;;;;;;;15.90;99.90;;;;;;5002471;28;20422;-90
2023/10/13 07:37:54;;;;;;;;;;;15.80;99.90;;;;;;4998448;28;20000;-92
2023/10/13 07:42:49;;;;;;;;;;;15.80;99.90;;;;;;5035678;28;19971;-91
2023/10/13 07:45:18;;;;;;;;;;;16.00;99.90;;;;;;5000591;28;20372;-92
2023/10/13 07:47:43;;;;;;;;;;;16.00;99.90;;;;;;5013567;28;19963;-89
2023/10/13 07:50:09;;;;;;;;;;;15.80;99.90;;;;;;5019810;28;20276;-94
2023/10/13 07:52:58;;;;;;;;;;;16.10;99.90;;;;;;5005332;28;19916;-96
2023/10/13 07:55:24;;;;;;;;;;;15.80;99.90;;;;;;5020594;28;20007;-93
2023/10/13 07:57:53;;;;;;;;;;;15.80;99.90;;;;;;5020469;28;19921;-94
2023/10/13 08:00:29;;;;;;;;;;;16.00;99.90;;;;;;4994308;28;19940;-94
2023/10/13 08:03:32;;;;;;;;;;;15.70;99.90;;;;;;5001130;28;19921;-94
2023/10/13 08:05:58;;;;;;;;;;;15.90;99.90;;;;;;5027173;28;20016;-93
2023/10/13 08:08:39;;;;;;;;;;;16.00;99.90;;;;;;5019345;28;20367;-92
2023/10/13 08:11:11;;;;;;;;;;;16.00;99.90;;;;;;5019252;28;19917;-92
2023/10/13 08:13:53;;;;;;;;;;;15.80;99.90;;;;;;5022591;28;20536;-91
2023/10/13 08:16:23;;;;;;;;;;;15.80;99.90;;;;;;5010007;28;19921;-93
2023/10/13 08:18:49;;;;;;;;;;;15.70;99.90;;;;;;5011251;28;19917;-88
2023/10/13 08:21:22;;;;;;;;;;;15.70;99.90;;;;;;5033433;28;20315;-90
2023/10/13 08:47:59;;;;;;;;;;;16.20;99.90;;;;;;5020861;28;19952;-90
2023/10/13 08:56:15;;;;;;;;;;;16.20;99.90;;;;;;5019318;28;19921;-91
2023/10/13 09:09:35;;;;;;;;;;;16.60;99.90;;;;;;5024756;28;19924;-95
2023/10/13 09:12:18;;;;;;;;;;;16.40;99.90;;;;;;5020047;28;19923;-91
2023/10/13 09:14:56;;;;;;;;;;;16.40;99.90;;;;;;5015082;28;19982;-92
2023/10/13 09:17:39;;;;;;;;;;;16.70;99.90;;;;;;5010399;28;19944;-87
2023/10/13 09:20:42;;;;;;;;;;;16.80;99.90;;;;;;5005146;28;19917;-93
2023/10/13 09:25:33;;;;;;;;;;;16.90;99.90;;;;;;5016663;28;19917;-87
2023/10/13 09:28:00;;;;;;;;;;;17.00;99.90;;;;;;5016517;28;20316;-92
2023/10/13 09:30:28;;;;;;;;;;;17.10;99.90;;;;;;5015208;28;19971;-93
2023/10/13 09:33:15;;;;;;;;;;;17.10;99.90;;;;;;5016307;28;19921;-88
2023/10/13 09:35:49;;;;;;;;;;;17.20;99.90;;;;;;5008277;28;20365;-90
2023/10/13 09:38:15;;;;;;;;;;;17.00;99.90;;;;;;5013877;28;20356;-90
2023/10/13 09:40:49;;;;;;;;;;;17.40;99.90;;;;;;5010194;28;19917;-89
2023/10/13 09:43:19;;;;;;;;;;;17.20;99.90;;;;;;5033291;28;20407;-89
2023/10/13 09:48:46;;;;;;;;;;;17.30;99.90;;;;;;4995629;28;20322;-95
2023/10/13 09:51:13;;;;;;;;;;;17.50;99.90;;;;;;5000764;28;19925;-92
2023/10/13 09:53:41;;;;;;;;;;;17.50;99.90;;;;;;5016498;28;19917;-89
2023/10/13 09:56:14;;;;;;;;;;;17.40;99.90;;;;;;5009004;28;19916;-90
2023/10/13 09:58:50;;;;;;;;;;;17.50;99.90;;;;;;5011467;28;19925;-89
2023/10/13 10:01:33;;;;;;;;;;;17.50;99.90;;;;;;5015992;28;19972;-89
2023/10/13 10:06:47;;;;;;;;;;;17.70;99.90;;;;;;5018228;28;19917;-89
2023/10/13 10:09:12;;;;;;;;;;;17.90;99.90;;;;;;5015085;28;19917;-91
2023/10/13 10:11:57;;;;;;;;;;;17.80;99.90;;;;;;5009816;28;20047;-91
2023/10/13 10:14:41;;;;;;;;;;;18.10;99.90;;;;;;5015451;28;19921;-95
2023/10/13 10:17:07;;;;;;;;;;;17.90;99.90;;;;;;5003346;28;20027;-91
2023/10/13 10:19:45;;;;;;;;;;;17.90;99.90;;;;;;5015524;28;19928;-90
2023/10/13 10:22:17;;;;;;;;;;;18.00;99.90;;;;;;5011886;28;20492;-91
2023/10/13 10:24:59;;;;;;;;;;;18.00;99.90;;;;;;5039583;28;19924;-93
2023/10/13 10:27:29;;;;;;;;;;;17.90;99.90;;;;;;5002772;28;20304;-89
2023/10/13 10:29:55;;;;;;;;;;;18.00;99.90;;;;;;5011950;28;19971;-95
2023/10/13 10:32:33;;;;;;;;;;;18.10;99.90;;;;;;4994266;28;19984;-92
2023/10/13 10:35:14;;;;;;;;;;;18.00;99.90;;;;;;5009401;28;19971;-91
2023/10/13 10:37:46;;;;;;;;;;;18.10;99.90;;;;;;5009248;28;20045;-92
2023/10/13 10:40:31;;;;;;;;;;;18.10;99.90;;;;;;4993905;28;19999;-91
2023/10/13 10:43:00;;;;;;;;;;;18.10;99.90;;;;;;5025905;28;20772;-89
2023/10/13 10:45:32;;;;;;;;;;;18.20;99.90;;;;;;5015477;28;20352;-91
2023/10/13 10:47:58;;;;;;;;;;;18.30;99.90;;;;;;5027286;28;19917;-93
2023/10/13 10:50:36;;;;;;;;;;;18.40;99.90;;;;;;4999235;28;20495;-88
2023/10/13 10:53:08;;;;;;;;;;;18.40;99.90;;;;;;5009243;28;19921;-87
2023/10/13 10:55:37;;;;;;;;;;;18.40;99.90;;;;;;5007389;28;19917;-93
2023/10/13 10:58:28;;;;;;;;;;;18.40;99.90;;;;;;5013825;28;19928;-90
2023/10/13 11:01:10;;;;;;;;;;;18.50;99.90;;;;;;4994682;28;19980;-92
2023/10/13 11:04:14;;;;;;;;;;;18.40;99.90;;;;;;4991513;28;19929;-91
2023/10/13 11:06:45;;;;;;;;;;;18.50;99.90;;;;;;4958615;28;20007;-91
2023/10/13 11:09:36;;;;;;;;;;;18.70;99.90;;;;;;4977603;28;19928;-92
2023/10/13 11:14:50;;;;;;;;;;;18.60;99.90;;;;;;5002893;28;19917;-94
2023/10/13 11:17:24;;;;;;;;;;;18.80;99.90;;;;;;4968679;28;20299;-92
2023/10/13 11:19:50;;;;;;;;;;;18.90;99.90;;;;;;4999000;28;19991;-93
2023/10/13 11:25:11;;;;;;;;;;;19.00;99.90;;;;;;4998549;28;20008;-91
2023/10/13 11:30:19;;;;;;;;;;;18.90;99.90;;;;;;4996860;28;20261;-93
2023/10/13 11:32:46;;;;;;;;;;;18.80;99.90;;;;;;5002511;28;20357;-91
2023/10/13 11:35:24;;;;;;;;;;;18.80;99.90;;;;;;4976465;28;19940;-93
2023/10/13 11:38:24;;;;;;;;;;;18.90;99.90;;;;;;4980824;28;20388;-92
2023/10/13 11:41:19;;;;;;;;;;;18.90;99.90;;;;;;4967722;28;20008;-92
2023/10/13 11:44:07;;;;;;;;;;;18.30;99.90;;;;;;4938178;29;20495;-94
2023/10/13 11:49:37;;;;;;;;;;;18.90;99.90;;;;;;4963430;28;19921;-91
2023/10/13 11:55:18;;;;;;;;;;;18.80;99.90;;;;;;4966518;28;20385;-89
2023/10/13 12:05:27;;;;;;;;;;;18.40;99.90;;;;;;4963546;28;20398;-94
2023/10/13 12:08:33;;;;;;;;;;;18.90;99.90;;;;;;4961763;28;19917;-91
2023/10/13 12:11:30;;;;;;;;;;;18.40;99.90;;;;;;4948435;28;19925;-93
2023/10/13 12:17:44;;;;;;;;;;;18.60;99.90;;;;;;4937265;29;19946;-90
2023/10/13 12:26:55;;;;;;;;;;;18.50;99.90;;;;;;4904242;29;19962;-92
2023/10/13 12:30:35;;;;;;;;;;;18.60;99.90;;;;;;4929908;29;20043;-95
2023/10/13 12:36:41;;;;;;;;;;;18.70;99.90;;;;;;4996114;28;20465;-92
2023/10/13 12:57:58;;;;;;;;;;;18.50;99.90;;;;;;4930503;29;19923;-94
2023/10/13 13:00:33;;;;;;;;;;;18.40;99.90;;;;;;4889066;29;19919;-90
2023/10/13 13:03:11;;;;;;;;;;;18.30;99.90;;;;;;4894240;29;19925;-92
2023/10/13 13:12:51;;;;;;;;;;;18.30;99.90;;;;;;4965909;28;19917;-92
2023/10/13 13:15:39;;;;;;;;;;;18.20;99.90;;;;;;4945956;28;20315;-92
2023/10/13 13:18:26;;;;;;;;;;;18.20;99.90;;;;;;4957202;28;19989;-91
2023/10/13 13:24:04;;;;;;;;;;;18.10;99.90;;;;;;4988669;28;20044;-91
2023/10/13 13:26:40;;;;;;;;;;;18.10;99.90;;;;;;4977324;28;19917;-95
2023/10/13 13:29:25;;;;;;;;;;;18.00;99.90;;;;;;4997159;28;20576;-94
2023/10/13 13:31:52;;;;;;;;;;;17.90;99.90;;;;;;4976675;28;20442;-92
2023/10/13 13:34:20;;;;;;;;;;;17.90;99.90;;;;;;4975838;28;19925;-93
2023/10/13 13:36:53;;;;;;;;;;;18.00;99.90;;;;;;4978089;28;19925;-94
2023/10/13 13:42:18;;;;;;;;;;;17.90;99.90;;;;;;4994740;28;19917;-92
2023/10/13 13:44:51;;;;;;;;;;;17.90;99.90;;;;;;4962502;28;19925;-96
2023/10/13 13:47:22;;;;;;;;;;;17.80;99.90;;;;;;4978680;28;20004;-91
2023/10/13 13:50:05;;;;;;;;;;;17.70;99.90;;;;;;4964603;28;20362;-94
2023/10/13 13:52:52;;;;;;;;;;;18.00;99.90;;;;;;4955445;28;19925;-92
2023/10/13 13:55:31;;;;;;;;;;;17.40;99.90;;;;;;4979368;28;20031;-93
2023/10/13 13:58:07;;;;;;;;;;;17.90;99.90;;;;;;4976569;28;19921;-93
2023/10/13 14:00:50;;;;;;;;;;;17.90;99.90;;;;;;4987215;28;19916;-88
2023/10/13 14:03:34;;;;;;;;;;;17.70;99.90;;;;;;4979168;28;19917;-95
2023/10/13 14:06:13;;;;;;;;;;;;;;;;;;;;;
2023/10/13 14:15:01;;;;;;;;;;;17.80;99.90;;;;;;4988905;28;19925;-95
2023/10/13 14:17:49;;;;;;;;;;;17.80;99.90;;;;;;4992933;28;19977;-94
2023/10/13 14:20:21;;;;;;;;;;;17.80;99.90;;;;;;4950074;28;19924;-95
2023/10/13 14:22:52;;;;;;;;;;;17.90;99.90;;;;;;4972484;28;19917;-92
2023/10/13 14:25:17;;;;;;;;;;;17.90;99.90;;;;;;4980620;28;19918;-94
2023/10/13 14:27:46;;;;;;;;;;;17.90;99.90;;;;;;4978347;28;19917;-93
2023/10/13 14:30:19;;;;;;;;;;;17.70;99.90;;;;;;4978377;28;19927;-90
2023/10/13 14:32:45;;;;;;;;;;;17.90;99.90;;;;;;4975679;28;19917;-92
2023/10/13 14:35:14;;;;;;;;;;;18.00;99.90;;;;;;4982502;28;20327;-88
2023/10/13 14:37:40;;;;;;;;;;;18.00;99.90;;;;;;4986030;28;19925;-91
2023/10/13 14:40:15;;;;;;;;;;;18.00;99.90;;;;;;4999740;28;19928;-95
2023/10/13 14:42:47;;;;;;;;;;;18.10;99.90;;;;;;4998669;28;20008;-94
2023/10/13 14:45:13;;;;;;;;;;;17.80;99.90;;;;;;4999674;28;19940;-92
2023/10/13 14:47:39;;;;;;;;;;;18.10;99.90;;;;;;4990320;28;19921;-95
2023/10/13 14:50:19;;;;;;;;;;;18.10;99.90;;;;;;4997067;28;19921;-95
2023/10/13 14:52:46;;;;;;;;;;;18.10;99.90;;;;;;5003944;28;20371;-96
2023/10/13 14:55:21;;;;;;;;;;;18.00;99.90;;;;;;4990337;28;20132;-93
2023/10/13 14:57:49;;;;;;;;;;;18.00;99.90;;;;;;5004561;28;19963;-91
2023/10/13 15:00:18;;;;;;;;;;;18.00;99.90;;;;;;4999744;28;19982;-91
2023/10/13 15:02:47;;;;;;;;;;;18.00;99.90;;;;;;4984378;28;20276;-92
2023/10/13 15:05:16;;;;;;;;;;;18.00;99.90;;;;;;4988723;28;20008;-95
2023/10/13 15:08:08;;;;;;;;;;;18.00;99.90;;;;;;4982569;28;19997;-95
2023/10/13 15:13:25;;;;;;;;;;;18.70;99.90;;;;;;5013267;28;19917;-93
2023/10/13 15:15:54;;;;;;;;;;;17.90;99.90;;;;;;4983058;28;20004;-90
2023/10/13 15:18:23;;;;;;;;;;;17.60;99.90;;;;;;4974365;28;19929;-93
2023/10/13 15:20:48;;;;;;;;;;;17.90;99.90;;;;;;4980865;28;19917;-91
2023/10/13 15:23:22;;;;;;;;;;;17.90;99.90;;;;;;4985678;28;20352;-94
2023/10/13 15:25:51;;;;;;;;;;;17.70;99.90;;;;;;4995881;28;19917;-91
2023/10/13 15:28:20;;;;;;;;;;;17.70;99.90;;;;;;4985465;28;19963;-90
2023/10/13 15:33:34;;;;;;;;;;;17.60;99.90;;;;;;4973564;28;19929;-91
2023/10/13 15:36:00;;;;;;;;;;;17.60;99.90;;;;;;4990682;28;19931;-94
2023/10/13 15:38:28;;;;;;;;;;;17.70;99.90;;;;;;4980416;28;19918;-91
2023/10/13 15:40:54;;;;;;;;;;;17.60;99.90;;;;;;4987844;28;19917;-91
2023/10/13 15:43:20;;;;;;;;;;;17.40;99.90;;;;;;4988427;28;19917;-93
2023/10/13 15:45:46;;;;;;;;;;;17.60;99.90;;;;;;5001051;28;20132;-90
2023/10/13 15:48:15;;;;;;;;;;;17.60;99.90;;;;;;5014223;28;19931;-91
2023/10/13 15:50:40;;;;;;;;;;;17.50;99.90;;;;;;4996630;28;20312;-89
2023/10/13 15:53:07;;;;;;;;;;;17.50;99.90;;;;;;5002290;28;20014;-92
2023/10/13 15:55:38;;;;;;;;;;;17.40;99.90;;;;;;5015137;28;19992;-93
2023/10/13 15:58:07;;;;;;;;;;;17.60;99.90;;;;;;5000887;28;19920;-94
2023/10/13 16:00:36;;;;;;;;;;;17.40;99.90;;;;;;4995762;28;19984;-89
2023/10/13 16:03:03;;;;;;;;;;;17.40;99.90;;;;;;4992734;28;19922;-87
2023/10/13 16:05:33;;;;;;;;;;;17.40;99.90;;;;;;4997940;28;20288;-90
2023/10/13 16:07:59;;;;;;;;;;;17.40;99.90;;;;;;5018599;28;19971;-92
2023/10/13 16:10:26;;;;;;;;;;;17.30;99.90;;;;;;5000626;28;19921;-90
2023/10/13 16:12:53;;;;;;;;;;;17.40;99.90;;;;;;4983556;28;19974;-95
2023/10/13 16:15:21;;;;;;;;;;;17.40;99.90;;;;;;4981916;28;19917;-94
2023/10/13 16:17:47;;;;;;;;;;;17.50;99.90;;;;;;4995157;28;20005;-96
2023/10/13 16:20:15;;;;;;;;;;;17.40;99.90;;;;;;5002176;28;19917;-94
2023/10/13 16:22:43;;;;;;;;;;;17.40;99.90;;;;;;4976847;28;19925;-95
2023/10/13 16:25:11;;;;;;;;;;;17.00;99.90;;;;;;4982302;28;19966;-91
2023/10/13 16:27:39;;;;;;;;;;;17.40;99.90;;;;;;4981997;28;19924;-93
2023/10/13 16:30:09;;;;;;;;;;;17.50;99.90;;;;;;5001553;28;19938;-93
2023/10/13 16:32:35;;;;;;;;;;;16.90;99.90;;;;;;5001081;28;19921;-93
2023/10/13 16:35:06;;;;;;;;;;;17.40;99.90;;;;;;4998717;28;20368;-91
2023/10/13 16:37:33;;;;;;;;;;;17.80;99.90;;;;;;5001229;28;20380;-90
2023/10/13 16:40:05;;;;;;;;;;;17.40;99.90;;;;;;5004702;28;19916;-96
2023/10/13 16:42:33;;;;;;;;;;;17.20;99.90;;;;;;5000734;28;20315;-93
2023/10/13 16:45:14;;;;;;;;;;;17.30;99.90;;;;;;4985874;28;19921;-89
2023/10/13 16:47:43;;;;;;;;;;;17.60;99.90;;;;;;4997372;28;19921;-92
2023/10/13 16:50:14;;;;;;;;;;;17.50;99.90;;;;;;4994524;28;19921;-96
2023/10/13 16:52:40;;;;;;;;;;;17.20;99.90;;;;;;4997763;28;19920;-94
2023/10/13 16:55:09;;;;;;;;;;;17.50;99.90;;;;;;4996964;28;20368;-90
2023/10/13 16:57:38;;;;;;;;;;;17.40;99.90;;;;;;4999849;28;20300;-94
2023/10/13 17:00:11;;;;;;;;;;;17.30;99.90;;;;;;4980791;28;19917;-95
2023/10/13 17:02:42;;;;;;;;;;;17.30;99.90;;;;;;4985363;28;19921;-88
2023/10/13 17:05:09;;;;;;;;;;;17.30;99.90;;;;;;4997924;28;19970;-92
2023/10/13 17:07:37;;;;;;;;;;;16.90;99.90;;;;;;4998278;28;20336;-89
2023/10/13 17:10:03;;;;;;;;;;;17.40;99.90;;;;;;4993225;28;19925;-92
2023/10/13 17:12:29;;;;;;;;;;;17.20;99.90;;;;;;4999898;28;19928;-91
2023/10/13 17:14:57;;;;;;;;;;;17.40;99.90;;;;;;4996828;28;20041;-92
2023/10/13 17:17:23;;;;;;;;;;;17.40;99.90;;;;;;4979530;28;20506;-92
2023/10/13 17:19:49;;;;;;;;;;;17.50;99.90;;;;;;4997114;28;19974;-92
2023/10/13 17:22:19;;;;;;;;;;;17.50;99.90;;;;;;4987986;28;19916;-90
2023/10/13 17:24:45;;;;;;;;;;;17.20;99.90;;;;;;4993722;28;20009;-92
2023/10/13 17:27:10;;;;;;;;;;;17.50;99.90;;;;;;4999263;28;19964;-91
2023/10/13 17:29:36;;;;;;;;;;;17.40;99.90;;;;;;4971785;28;19955;-87
2023/10/13 17:32:02;;;;;;;;;;;17.50;99.90;;;;;;4996765;28;19971;-93
2023/10/13 17:34:28;;;;;;;;;;;18.00;99.90;;;;;;4996720;28;19928;-92
2023/10/13 17:37:03;;;;;;;;;;;17.50;99.90;;;;;;4994044;28;19965;-91
2023/10/13 17:39:33;;;;;;;;;;;17.30;99.90;;;;;;4993685;28;19917;-92
2023/10/13 17:42:00;;;;;;;;;;;17.40;99.90;;;;;;4994327;28;19917;-95
2023/10/13 17:44:27;;;;;;;;;;;17.40;99.90;;;;;;5007949;28;19924;-92
2023/10/13 17:46:52;;;;;;;;;;;17.40;99.90;;;;;;4991382;28;19967;-91
2023/10/13 17:49:18;;;;;;;;;;;17.50;99.90;;;;;;4995049;28;19921;-86
2023/10/13 17:51:44;;;;;;;;;;;17.50;99.90;;;;;;4979383;28;20009;-95
2023/10/13 17:54:22;;;;;;;;;;;17.20;99.90;;;;;;4999378;28;19921;-94
2023/10/13 17:56:47;;;;;;;;;;;17.60;99.90;;;;;;4990385;28;19955;-90
2023/10/13 17:59:13;;;;;;;;;;;17.50;99.90;;;;;;5000230;28;19916;-92
2023/10/13 18:01:39;;;;;;;;;;;17.60;99.90;;;;;;4983186;28;19943;-92
2023/10/13 18:04:09;;;;;;;;;;;17.50;99.90;;;;;;4998315;28;19932;-90
2023/10/13 18:06:38;;;;;;;;;;;17.50;99.90;;;;;;4994515;28;19918;-95
2023/10/13 18:09:05;;;;;;;;;;;17.50;99.90;;;;;;4985215;28;19976;-91
2023/10/13 18:11:32;;;;;;;;;;;17.50;99.90;;;;;;4997263;28;19917;-91
2023/10/13 18:13:58;;;;;;;;;;;17.50;99.90;;;;;;5000508;28;19924;-92
2023/10/13 18:16:26;;;;;;;;;;;17.50;99.90;;;;;;4993900;28;19921;-89
2023/10/13 18:18:55;;;;;;;;;;;17.50;99.90;;;;;;4992922;28;19925;-91
2023/10/13 18:21:24;;;;;;;;;;;17.50;99.90;;;;;;4994915;28;20303;-94
2023/10/13 18:23:50;;;;;;;;;;;17.70;99.90;;;;;;4985445;28;19933;-91
2023/10/13 18:26:17;;;;;;;;;;;17.30;99.90;;;;;;4994316;28;19967;-90
2023/10/13 18:28:46;;;;;;;;;;;17.10;99.90;;;;;;5001335;28;19917;-91
2023/10/13 18:31:11;;;;;;;;;;;17.70;99.90;;;;;;4994103;28;19964;-94
2023/10/13 18:33:40;;;;;;;;;;;17.60;99.90;;;;;;4964487;28;19920;-92
2023/10/13 18:36:14;;;;;;;;;;;17.60;99.90;;;;;;4980629;28;19925;-88
2023/10/13 18:38:46;;;;;;;;;;;17.60;99.90;;;;;;4999164;28;19921;-92
2023/10/13 18:41:14;;;;;;;;;;;17.50;99.90;;;;;;4998834;28;19921;-94
2023/10/13 18:43:40;;;;;;;;;;;17.60;99.90;;;;;;4981228;28;19987;-95
2023/10/13 18:46:06;;;;;;;;;;;17.80;99.90;;;;;;4998439;28;19939;-87
2023/10/13 18:48:35;;;;;;;;;;;17.70;99.90;;;;;;4999436;28;20011;-95
2023/10/13 18:51:05;;;;;;;;;;;17.80;99.90;;;;;;4999003;28;19975;-94
2023/10/13 18:53:33;;;;;;;;;;;17.80;99.90;;;;;;4999206;28;19916;-93
2023/10/13 18:56:09;;;;;;;;;;;17.80;99.90;;;;;;5000325;28;19955;-88